Terminal Aerodrome Forecast
Issued by NWS Missoula, MT

Home | Current Version | Previous Version | Text Only | Print | Product List | Glossary On
Versions: 1 2 3 4 5 6 7 8 9 10 11 12 13 14 15 16 17 18 19 20
000
FTUS45 KMSO 201133
TAFGPI
TAF
KGPI 201133Z 2012/2112 16008KT P6SM FEW050 OVC060
     FM202300 16006KT P6SM VCSH OVC040
     FM210600 18004KT 6SM -RA OVC040=

USA.gov is the U.S. government's official web portal to all federal, state and local government web resources and services.